Time;durP1;ratioP1;P1;durP2;ratioP2;P2;SDS_P1;SDS_P2;PMS_P1;PMS_P2;Temp;Humidity;BMP_temperature;BMP_pressure;BME280_temperature;BME280_humidity;BME280_pressure;Samples;Min_cycle;Max_cycle;Signal;HPM_P1;HPM_P2
2020/12/16 00:02:04;;;;;;;65.20;35.83;;;;;;;8.10;100.00;102251.88;5015675;28;20029;-73
2020/12/16 00:04:50;;;;;;;62.00;33.10;;;;;;;8.08;100.00;102245.75;5015225;28;20030;-72
2020/12/16 00:07:36;;;;;;;67.13;35.05;;;;;;;8.06;100.00;102250.09;5015482;28;20434;-73
2020/12/16 00:10:22;;;;;;;60.63;33.42;;;;;;;8.31;100.00;102261.81;5015746;28;20030;-72
2020/12/16 00:13:10;;;;;;;66.43;36.00;;;;;;;8.54;100.00;102253.50;5015276;28;20116;-73
2020/12/16 00:15:56;;;;;;;67.18;36.92;;;;;;;8.34;100.00;102262.78;5016225;28;20066;-73
2020/12/16 00:18:43;;;;;;;64.05;34.58;;;;;;;8.38;100.00;102266.31;5016437;28;20131;-72
2020/12/16 00:21:29;;;;;;;64.75;35.05;;;;;;;8.33;100.00;102262.75;5015351;28;20026;-72
2020/12/16 00:24:14;;;;;;;71.00;38.00;;;;;;;8.22;100.00;102265.19;5015211;28;20363;-73
2020/12/16 00:27:02;;;;;;;67.10;36.47;;;;;;;8.11;100.00;102268.41;5014952;28;20108;-73
2020/12/16 00:29:48;;;;;;;73.90;41.92;;;;;;;8.00;100.00;102269.97;5016702;28;20026;-74
2020/12/16 00:32:38;;;;;;;84.03;46.38;;;;;;;8.15;100.00;102268.50;5015365;28;20425;-74
2020/12/16 00:35:24;;;;;;;78.68;42.78;;;;;;;7.45;100.00;102264.56;5016296;28;20053;-72
2020/12/16 00:38:11;;;;;;;73.25;39.97;;;;;;;8.04;100.00;102267.44;5015550;28;20037;-73
2020/12/16 00:40:57;;;;;;;67.10;38.63;;;;;;;8.05;100.00;102277.03;5015138;28;20057;-73
2020/12/16 00:43:42;;;;;;;72.88;38.42;;;;;;;8.17;100.00;102276.38;5015000;28;20410;-73
2020/12/16 00:46:28;;;;;;;68.55;38.15;;;;;;;7.52;100.00;102276.91;5015319;28;20022;-72
2020/12/16 00:49:14;;;;;;;75.22;40.00;;;;;;;7.56;100.00;102271.75;5014921;28;20061;-72
2020/12/16 00:52:00;;;;;;;69.82;37.47;;;;;;;7.59;100.00;102268.34;5014830;28;20022;-72
2020/12/16 00:54:45;;;;;;;78.18;41.97;;;;;;;7.99;100.00;102270.81;5014808;28;20103;-72
2020/12/16 00:57:33;;;;;;;72.22;39.00;;;;;;;8.00;100.00;102272.59;5015673;28;20021;-72
2020/12/16 01:00:19;;;;;;;72.82;38.00;;;;;;;7.97;100.00;102270.81;5014811;28;20030;-73
2020/12/16 01:03:05;;;;;;;70.40;37.03;;;;;;;8.11;100.00;102266.69;5015439;28;20116;-73
2020/12/16 01:05:50;;;;;;;69.55;36.88;;;;;;;8.19;100.00;102267.69;5015634;28;20028;-73
2020/12/16 01:08:38;;;;;;;69.50;36.10;;;;;;;7.84;100.00;102267.94;5014679;28;20516;-72
2020/12/16 01:11:24;;;;;;;71.38;35.95;;;;;;;8.06;100.00;102268.34;5015493;28;20030;-73
2020/12/16 01:14:10;;;;;;;71.53;36.22;;;;;;;7.74;100.00;102261.69;5015231;28;20026;-73
2020/12/16 01:16:55;;;;;;;69.15;37.30;;;;;;;7.63;100.00;102257.13;5014445;28;20461;-73
2020/12/16 01:19:41;;;;;;;69.85;38.55;;;;;;;8.03;100.00;102257.84;5014832;28;20366;-73
2020/12/16 01:22:27;;;;;;;68.35;37.00;;;;;;;8.12;100.00;102262.34;5014487;28;20022;-72
2020/12/16 01:25:15;;;;;;;66.13;35.60;;;;;;;7.92;100.00;102254.16;5014726;28;20042;-72
2020/12/16 01:28:01;;;;;;;69.50;35.50;;;;;;;8.10;100.00;102259.72;5015319;28;20109;-72
2020/12/16 01:30:47;;;;;;;68.15;36.60;;;;;;;8.38;100.00;102254.13;5015607;28;20034;-72
2020/12/16 01:33:33;;;;;;;62.45;32.35;;;;;;;8.25;100.00;102248.69;5015582;28;20160;-72
2020/12/16 01:36:18;;;;;;;67.05;35.83;;;;;;;7.76;100.00;102240.84;5014010;28;20492;-72
2020/12/16 01:39:04;;;;;;;66.05;34.92;;;;;;;7.64;100.00;102244.06;5014665;28;20491;-73
2020/12/16 01:41:50;;;;;;;70.18;37.85;;;;;;;7.94;100.00;102242.03;5014576;28;20030;-73
2020/12/16 01:44:36;;;;;;;70.72;37.28;;;;;;;7.80;100.00;102235.69;5015271;28;20036;-72
2020/12/16 01:47:22;;;;;;;71.05;38.92;;;;;;;7.97;100.00;102242.09;5013959;28;20022;-73
2020/12/16 01:50:09;;;;;;;73.40;38.95;;;;;;;7.99;100.00;102229.94;5014548;28;20129;-72
2020/12/16 01:52:57;;;;;;;70.40;38.35;;;;;;;8.20;100.00;102225.06;5014742;28;20029;-71
2020/12/16 01:55:45;;;;;;;67.00;36.42;;;;;;;7.78;100.00;102220.84;5014455;28;20040;-73
2020/12/16 01:58:33;;;;;;;66.50;35.70;;;;;;;7.89;100.00;102219.31;5013964;28;20104;-72
2020/12/16 02:01:22;;;;;;;72.25;38.45;;;;;;;7.65;100.00;102211.06;5013923;28;20029;-72
2020/12/16 02:04:21;;;;;;;70.18;37.92;;;;;;;7.78;100.00;102216.53;5015119;28;20030;-72
2020/12/16 02:07:09;;;;;;;69.20;34.90;;;;;;;8.19;100.00;102214.59;5014496;28;20022;-74
2020/12/16 02:09:54;;;;;;;64.70;34.42;;;;;;;8.22;100.00;102207.75;5014897;28;20569;-72
2020/12/16 02:12:40;;;;;;;67.88;35.20;;;;;;;8.55;100.00;102207.34;5013613;28;20442;-72
2020/12/16 02:15:26;;;;;;;59.85;32.30;;;;;;;8.51;100.00;102195.09;5014609;28;20025;-72
2020/12/16 02:18:12;;;;;;;58.88;31.92;;;;;;;8.67;100.00;102190.13;5014114;28;20032;-72
2020/12/16 02:20:57;;;;;;;64.22;35.13;;;;;;;8.27;100.00;102195.63;5014009;28;20093;-72
2020/12/16 02:23:45;;;;;;;65.70;33.60;;;;;;;8.27;100.00;102198.25;5013725;28;20065;-73
2020/12/16 02:26:36;;;;;;;66.50;34.67;;;;;;;8.39;100.00;102202.75;5014155;28;20026;-73
2020/12/16 02:29:24;;;;;;;65.22;34.30;;;;;;;7.83;100.00;102207.03;5014047;28;20029;-72
2020/12/16 02:32:12;;;;;;;62.60;33.58;;;;;;;7.86;100.00;102207.09;5015845;28;20061;-72
2020/12/16 02:34:58;;;;;;;63.72;33.22;;;;;;;7.86;100.00;102207.09;5014453;28;20459;-72
2020/12/16 02:37:43;;;;;;;59.17;31.73;;;;;;;7.71;100.00;102198.13;5015736;28;20038;-72
2020/12/16 02:40:29;;;;;;;55.10;31.38;;;;;;;8.43;100.00;102191.50;5014846;28;20029;-72
2020/12/16 02:43:15;;;;;;;56.40;30.70;;;;;;;7.88;100.00;102201.91;5015525;28;20029;-72
2020/12/16 02:46:01;;;;;;;59.10;32.05;;;;;;;8.01;100.00;102206.47;5014613;28;20045;-73
2020/12/16 02:48:47;;;;;;;57.42;30.88;;;;;;;8.38;100.00;102204.50;5015100;28;20054;-72
2020/12/16 02:51:33;;;;;;;56.53;31.38;;;;;;;8.15;100.00;102207.56;5014386;28;20022;-72
2020/12/16 02:54:19;;;;;;;57.00;32.08;;;;;;;8.40;100.00;102207.16;5014204;28;20030;-72
2020/12/16 02:57:05;;;;;;;53.83;30.33;;;;;;;8.00;100.00;102209.94;5013508;28;20045;-73
2020/12/16 02:59:55;;;;;;;55.60;31.05;;;;;;;8.07;100.00;102206.56;5012874;28;20022;-72
2020/12/16 03:02:41;;;;;;;53.10;28.77;;;;;;;7.90;100.00;102202.81;5014202;28;20454;-72
2020/12/16 03:05:27;;;;;;;56.05;29.60;;;;;;;7.76;100.00;102210.38;5012947;28;20442;-72
2020/12/16 03:08:12;;;;;;;53.55;30.27;;;;;;;7.89;100.00;102201.94;5013108;28;20032;-72
2020/12/16 03:10:58;;;;;;;48.00;26.80;;;;;;;8.41;100.00;102198.47;5012728;28;20434;-72
2020/12/16 03:13:44;;;;;;;48.00;28.63;;;;;;;8.36;100.00;102197.50;5013020;28;20057;-72
2020/12/16 03:16:29;;;;;;;53.78;29.77;;;;;;;8.42;100.00;102205.44;5012763;28;20367;-72
2020/12/16 03:19:16;;;;;;;56.78;30.38;;;;;;;8.12;100.00;102211.00;5012575;28;20036;-73
2020/12/16 03:22:02;;;;;;;56.60;31.20;;;;;;;8.37;100.00;102201.88;5013749;28;20374;-73
2020/12/16 03:24:47;;;;;;;52.15;29.75;;;;;;;8.34;100.00;102201.81;5013433;28;20030;-72
2020/12/16 03:27:33;;;;;;;59.25;31.38;;;;;;;7.96;100.00;102210.75;5016750;28;20040;-72
2020/12/16 03:30:19;;;;;;;53.50;29.80;;;;;;;8.06;100.00;102210.03;5016105;28;20029;-72
2020/12/16 03:33:05;;;;;;;56.95;31.45;;;;;;;8.33;100.00;102203.53;5016033;28;20030;-73
2020/12/16 03:35:50;;;;;;;50.90;27.98;;;;;;;8.23;100.00;102214.72;5016068;28;20121;-72
2020/12/16 03:38:36;;;;;;;52.95;27.45;;;;;;;8.22;100.00;102212.97;5015744;28;20442;-72
2020/12/16 03:41:22;;;;;;;55.90;29.50;;;;;;;7.80;100.00;102212.19;5015791;28;20033;-72
2020/12/16 03:44:07;;;;;;;53.75;28.48;;;;;;;8.17;100.00;102212.00;5016085;28;20022;-72
2020/12/16 03:46:54;;;;;;;56.47;30.25;;;;;;;7.93;100.00;102213.31;5015842;28;20026;-72
2020/12/16 03:49:39;;;;;;;57.63;31.42;;;;;;;8.21;100.00;102215.53;5015189;28;20050;-72
2020/12/16 03:52:25;;;;;;;56.78;31.80;;;;;;;8.18;100.00;102216.34;5015802;28;20213;-72
2020/12/16 03:55:11;;;;;;;56.03;31.92;;;;;;;7.75;100.00;102216.47;5015633;28;20026;-72
2020/12/16 03:57:57;;;;;;;62.05;34.50;;;;;;;7.98;100.00;102217.75;5015854;28;20081;-72
2020/12/16 04:00:42;;;;;;;60.83;32.80;;;;;;;7.96;100.00;102227.28;5016090;28;20096;-72
2020/12/16 04:03:28;;;;;;;64.88;34.25;;;;;;;8.07;100.00;102222.22;5015969;28;20053;-72
2020/12/16 04:06:14;;;;;;;61.97;34.47;;;;;;;8.19;100.00;102220.72;5015512;28;20105;-72
2020/12/16 04:09:00;;;;;;;59.55;34.55;;;;;;;8.25;100.00;102222.56;5017049;28;20037;-72
2020/12/16 04:11:46;;;;;;;62.42;33.83;;;;;;;8.60;100.00;102222.25;5015444;28;20515;-72
2020/12/16 04:14:32;;;;;;;62.58;34.65;;;;;;;8.39;100.00;102227.16;5016149;28;20065;-72
2020/12/16 04:17:18;;;;;;;59.35;33.50;;;;;;;7.75;100.00;102220.78;5016714;28;20346;-73
2020/12/16 04:20:05;;;;;;;60.42;35.25;;;;;;;8.31;100.00;102227.88;5017033;28;20113;-72
2020/12/16 04:22:51;;;;;;;61.97;33.42;;;;;;;7.94;100.00;102234.22;5015731;28;20026;-73
2020/12/16 04:25:37;;;;;;;60.15;34.15;;;;;;;8.32;100.00;102238.34;5017157;28;20033;-73
2020/12/16 04:28:22;;;;;;;53.20;29.27;;;;;;;8.16;100.00;102236.31;5015415;28;20029;-72
2020/12/16 04:31:10;;;;;;;51.47;29.40;;;;;;;8.52;100.00;102234.31;5015367;28;20409;-72
2020/12/16 04:33:56;;;;;;;60.95;32.10;;;;;;;8.22;100.00;102243.41;5016238;28;20026;-72
2020/12/16 04:36:45;;;;;;;57.42;30.95;;;;;;;8.57;100.00;102247.47;5016078;28;20068;-72
2020/12/16 04:39:31;;;;;;;59.28;30.25;;;;;;;8.08;100.00;102244.88;5016655;28;20123;-72
2020/12/16 04:42:17;;;;;;;53.95;29.92;;;;;;;8.19;100.00;102248.53;5015899;28;20022;-72
2020/12/16 04:45:03;;;;;;;54.80;29.85;;;;;;;8.50;100.00;102248.22;5015141;28;20018;-72
2020/12/16 04:47:49;;;;;;;50.80;27.83;;;;;;;8.24;100.00;102254.78;5014520;28;20124;-72
2020/12/16 04:50:36;;;;;;;57.40;31.15;;;;;;;8.34;100.00;102251.44;5014524;28;20425;-72
2020/12/16 04:53:24;;;;;;;57.45;31.92;;;;;;;8.50;100.00;102256.03;5015611;28;20365;-72
2020/12/16 04:56:11;;;;;;;59.00;33.15;;;;;;;8.73;100.00;102255.53;5016018;28;20041;-72
2020/12/16 04:58:57;;;;;;;63.25;33.10;;;;;;;8.22;100.00;102264.28;5015556;28;20037;-72
2020/12/16 05:01:43;;;;;;;57.33;33.42;;;;;;;8.35;100.00;102261.91;5014679;28;20104;-72
2020/12/16 05:04:29;;;;;;;58.50;33.22;;;;;;;8.58;100.00;102259.66;5014495;28;20033;-73
2020/12/16 05:07:28;;;;;;;60.40;33.38;;;;;;;8.70;100.00;102257.22;5014442;28;20516;-72
2020/12/16 05:10:35;;;;;;;55.95;31.85;;;;;;;8.94;100.00;102253.22;5015894;28;20040;-71
2020/12/16 05:13:22;;;;;;;56.63;33.03;;;;;;;8.79;100.00;102260.84;5014091;28;20025;-73
2020/12/16 05:16:07;;;;;;;58.45;31.98;;;;;;;8.78;100.00;102264.31;5014138;28;20057;-72
2020/12/16 05:18:53;;;;;;;61.45;32.83;;;;;;;8.83;100.00;102256.53;5014319;28;20030;-72
2020/12/16 05:21:39;;;;;;;62.17;32.05;;;;;;;8.74;100.00;102259.03;5014182;28;20040;-72
2020/12/16 05:24:25;;;;;;;57.80;32.92;;;;;;;9.03;100.00;102261.19;5014809;28;20041;-72
2020/12/16 05:27:36;;;;;;;56.88;32.83;;;;;;;8.76;100.00;102267.78;5014193;28;20168;-72
2020/12/16 05:30:22;;;;;;;61.40;32.40;;;;;;;8.60;100.00;102271.03;5015553;28;20040;-73
2020/12/16 05:33:08;;;;;;;70.85;38.95;;;;;;;8.28;100.00;102272.25;5015399;28;20064;-72
2020/12/16 05:35:55;;;;;;;66.30;38.03;;;;;;;8.21;100.00;102275.59;5014726;28;20494;-72
2020/12/16 05:38:52;;;;;;;73.30;39.80;;;;;;;8.36;100.00;102278.47;5015095;28;20131;-72
2020/12/16 05:41:39;;;;;;;70.57;39.58;;;;;;;8.61;100.00;102281.47;5013202;28;20370;-73
2020/12/16 05:44:25;;;;;;;75.40;39.53;;;;;;;8.49;100.00;102283.03;5014804;28;20359;-73
2020/12/16 05:47:10;;;;;;;69.07;39.17;;;;;;;8.78;100.00;102285.22;5014615;28;20033;-72
2020/12/16 05:49:56;;;;;;;78.07;39.55;;;;;;;8.90;100.00;102289.75;5013714;28;20053;-72
2020/12/16 05:52:43;;;;;;;71.25;39.75;;;;;;;8.30;100.00;102291.41;5013685;28;20029;-72
2020/12/16 05:55:29;;;;;;;64.38;37.05;;;;;;;8.42;100.00;102295.13;5014719;28;20037;-72
2020/12/16 05:58:16;;;;;;;66.97;35.03;;;;;;;8.55;100.00;102302.28;5013470;28;20073;-73
2020/12/16 06:01:04;;;;;;;61.65;34.65;;;;;;;8.38;100.00;102301.13;5013536;28;20516;-72
2020/12/16 06:03:50;;;;;;;64.60;35.90;;;;;;;8.43;100.00;102304.69;5013805;28;20038;-72
2020/12/16 06:06:36;;;;;;;60.33;34.88;;;;;;;8.51;100.00;102310.03;5013846;28;20370;-71
2020/12/16 06:09:22;;;;;;;66.00;35.97;;;;;;;8.48;100.00;102304.78;5013199;28;20108;-72
2020/12/16 06:12:08;;;;;;;68.07;35.85;;;;;;;8.76;100.00;102322.66;5014257;28;20034;-72
2020/12/16 06:15:06;;;;;;;69.85;36.70;;;;;;;8.40;100.00;102311.63;5013220;28;20044;-72
2020/12/16 06:17:52;;;;;;;64.97;36.10;;;;;;;8.59;100.00;102318.88;5014235;28;20021;-72
2020/12/16 06:20:38;;;;;;;72.65;37.15;;;;;;;8.53;100.00;102314.44;5016148;28;20041;-73
2020/12/16 06:23:31;;;;;;;69.05;36.88;;;;;;;8.61;100.00;102325.88;5014044;28;20520;-73
2020/12/16 06:26:19;;;;;;;68.28;36.05;;;;;;;8.49;100.00;102324.81;5014525;28;20040;-72
2020/12/16 06:29:05;;;;;;;60.20;33.67;;;;;;;8.05;100.00;102325.75;5012986;28;20026;-71
2020/12/16 06:31:51;;;;;;;63.28;34.58;;;;;;;8.48;100.00;102330.91;5013663;28;20029;-72
2020/12/16 06:34:38;;;;;;;64.65;35.50;;;;;;;8.37;100.00;102335.06;5013148;28;20026;-72
2020/12/16 06:37:24;;;;;;;66.30;35.47;;;;;;;8.15;100.00;102330.25;5013308;28;20034;-71
2020/12/16 06:40:10;;;;;;;87.53;48.90;;;;;;;8.40;100.00;102340.34;5012767;28;20064;-72
2020/12/16 06:42:56;;;;;;;78.32;40.70;;;;;;;8.63;100.00;102349.41;5013945;28;20103;-72
2020/12/16 06:45:42;;;;;;;77.68;44.40;;;;;;;8.77;100.00;102340.09;5012491;28;20060;-72
2020/12/16 06:48:38;;;;;;;93.60;47.38;;;;;;;8.26;100.00;102347.03;5012421;28;20155;-73
2020/12/16 06:51:27;;;;;;;79.97;41.92;;;;;;;8.52;100.00;102346.63;5013983;28;20489;-72
2020/12/16 06:54:15;;;;;;;73.10;38.88;;;;;;;8.69;100.00;102345.16;4999245;28;20026;-72
2020/12/16 06:57:29;;;;;;;75.22;41.17;;;;;;;8.73;100.00;102348.72;5014163;28;20029;-73
2020/12/16 07:00:24;;;;;;;74.50;41.50;;;;;;;8.82;100.00;102351.47;5013890;28;20033;-73
2020/12/16 07:03:19;;;;;;;67.95;36.30;;;;;;;7.76;100.00;102342.59;5016862;28;20137;-72
2020/12/16 07:06:31;;;;;;;72.10;39.63;;;;;;;7.88;100.00;102356.72;5016321;28;20037;-73
2020/12/16 07:09:22;;;;;;;66.72;37.60;;;;;;;8.50;100.00;102357.91;5016706;28;20017;-73
2020/12/16 07:12:08;;;;;;;68.43;39.30;;;;;;;8.84;100.00;102355.00;5016106;28;20377;-73
2020/12/16 07:14:53;;;;;;;75.93;39.97;;;;;;;8.70;100.00;102356.50;5016523;28;20030;-75
2020/12/16 07:17:39;;;;;;;72.57;39.97;;;;;;;8.71;100.00;102361.78;5017482;28;20116;-74
2020/12/16 07:20:37;;;;;;;68.38;37.65;;;;;;;8.82;100.00;102355.00;5016863;28;20026;-74
2020/12/16 07:23:27;;;;;;;75.13;39.15;;;;;;;8.97;100.00;102359.56;5017033;28;20084;-74
2020/12/16 07:26:28;;;;;;;64.47;36.10;;;;;;;8.45;100.00;102362.19;5016559;28;20025;-73
2020/12/16 07:29:19;;;;;;;64.78;34.72;;;;;;;8.61;100.00;102365.06;5017480;28;20022;-73
2020/12/16 07:32:07;;;;;;;69.07;35.63;;;;;;;8.89;100.00;102366.41;5016980;28;20412;-74
2020/12/16 07:34:58;;;;;;;78.13;43.03;;;;;;;8.08;100.00;102360.59;5017261;28;20037;-74
2020/12/16 07:37:44;;;;;;;70.75;40.30;;;;;;;8.25;100.00;102358.34;5016621;28;20092;-74
2020/12/16 07:40:30;;;;;;;67.82;38.65;;;;;;;8.77;100.00;102367.06;5016242;28;20037;-74
2020/12/16 07:43:18;;;;;;;75.60;42.55;;;;;;;8.44;100.00;102366.53;5016018;28;20021;-75
2020/12/16 07:46:07;;;;;;;82.93;42.70;;;;;;;8.86;100.00;102375.09;5016962;28;20536;-74
2020/12/16 07:48:53;;;;;;;76.07;44.47;;;;;;;8.52;100.00;102372.75;5015612;28;20137;-73
2020/12/16 07:51:39;;;;;;;79.85;45.00;;;;;;;8.77;100.00;102374.91;5015388;28;20037;-74
2020/12/16 07:54:25;;;;;;;91.75;49.78;;;;;;;8.21;100.00;102372.19;5015890;28;20030;-74
2020/12/16 07:57:10;;;;;;;88.82;50.63;;;;;;;8.38;100.00;102376.88;5015674;28;20365;-73
2020/12/16 07:59:57;;;;;;;98.32;54.33;;;;;;;8.29;100.00;102376.72;5015869;28;20029;-73
2020/12/16 08:02:44;;;;;;;99.10;53.75;;;;;;;8.21;100.00;102372.19;5016737;28;20084;-73
2020/12/16 08:05:30;;;;;;;100.78;54.95;;;;;;;8.46;100.00;102377.00;5017766;28;20068;-73
2020/12/16 08:08:16;;;;;;;97.30;54.85;;;;;;;8.95;100.00;102376.94;5016742;28;20033;-74
2020/12/16 08:11:02;;;;;;;102.55;55.92;;;;;;;8.87;100.00;102373.34;5015272;28;20411;-73
2020/12/16 08:13:48;;;;;;;103.13;59.25;;;;;;;9.05;100.00;102381.47;5015613;28;20028;-74
2020/12/16 08:16:34;;;;;;;103.80;58.90;;;;;;;9.21;100.00;102380.84;5016824;28;20099;-73
2020/12/16 08:19:20;;;;;;;100.78;56.85;;;;;;;9.20;100.00;102379.06;5015477;28;20022;-73
2020/12/16 08:22:14;;;;;;;95.82;52.63;;;;;;;9.47;100.00;102374.22;5015409;28;20068;-74
2020/12/16 08:24:59;;;;;;;88.60;47.13;;;;;;;8.93;100.00;102376.06;5016668;28;20135;-74
2020/12/16 08:27:51;;;;;;;80.60;44.17;;;;;;;9.05;100.00;102381.47;5015257;28;20080;-74
2020/12/16 08:30:38;;;;;;;81.95;45.47;;;;;;;8.52;100.00;102377.13;5016737;28;20057;-73
2020/12/16 08:33:25;;;;;;;86.68;48.28;;;;;;;8.89;100.00;102382.09;5015658;28;20052;-72
2020/12/16 08:36:17;;;;;;;80.50;47.58;;;;;;;8.82;100.00;102382.84;5015153;28;20340;-73
2020/12/16 08:39:05;;;;;;;91.45;48.20;;;;;;;8.89;100.00;102388.19;5016035;28;20021;-73
2020/12/16 08:41:55;;;;;;;82.85;47.97;;;;;;;9.17;100.00;102381.66;5015507;28;20140;-73
2020/12/16 08:44:41;;;;;;;102.03;58.80;;;;;;;9.21;100.00;102378.22;5014637;28;20053;-74
2020/12/16 08:47:27;;;;;;;94.70;51.00;;;;;;;8.88;100.00;102373.34;5014714;28;20025;-73
2020/12/16 08:50:17;;;;;;;77.72;43.60;;;;;;;8.95;100.00;102367.38;5014981;28;20430;-74
2020/12/16 08:53:03;;;;;;;79.05;45.22;;;;;;;8.71;100.00;102368.72;5016294;28;20164;-74
2020/12/16 08:55:49;;;;;;;76.65;44.22;;;;;;;9.14;100.00;102363.31;5014504;28;20030;-74
2020/12/16 08:58:35;;;;;;;80.03;42.47;;;;;;;8.93;100.00;102361.22;5015013;28;20037;-73
2020/12/16 09:01:24;;;;;;;71.93;40.67;;;;;;;8.65;100.00;102366.88;5014984;28;20022;-74
2020/12/16 09:04:11;;;;;;;65.85;38.92;;;;;;;8.87;100.00;102355.03;5014657;28;20037;-73
2020/12/16 09:07:23;;;;;;;64.80;37.33;;;;;;;8.94;100.00;102356.91;5014586;28;20033;-73
2020/12/16 09:10:10;;;;;;;64.10;36.40;;;;;;;9.16;100.00;102362.47;5015646;28;20073;-75
2020/12/16 09:12:55;;;;;;;62.10;33.30;;;;;;;9.06;100.00;102354.47;5014488;28;20033;-73
2020/12/16 09:15:48;;;;;;;64.35;36.08;;;;;;;9.08;100.00;102356.25;5014392;28;20061;-74
2020/12/16 09:18:34;;;;;;;62.65;35.67;;;;;;;9.34;100.00;102354.91;5014061;28;20036;-75
2020/12/16 09:21:33;;;;;;;59.05;33.28;;;;;;;8.49;100.00;102354.41;5014235;28;20056;-73
2020/12/16 09:24:22;;;;;;;58.47;35.17;;;;;;;8.90;100.00;102353.38;5013170;28;20032;-73
2020/12/16 09:27:09;;;;;;;60.63;34.30;;;;;;;9.13;100.00;102338.88;5014872;28;20088;-74
2020/12/16 09:29:55;;;;;;;54.58;31.80;;;;;;;8.83;100.00;102342.78;5017091;28;20065;-74
2020/12/16 09:32:41;;;;;;;56.90;31.75;;;;;;;9.09;100.00;102331.84;5016889;28;20116;-74
2020/12/16 09:35:26;;;;;;;54.72;32.60;;;;;;;9.51;100.00;102327.22;5014571;28;20034;-74
2020/12/16 09:38:19;;;;;;;50.03;28.55;;;;;;;8.96;100.00;102329.91;5014935;28;20370;-74
2020/12/16 09:41:05;;;;;;;50.67;28.67;;;;;;;9.28;100.00;102325.13;5015132;28;20037;-74
2020/12/16 09:43:51;;;;;;;47.22;27.77;;;;;;;9.41;100.00;102327.94;5015363;28;20176;-74
2020/12/16 09:46:37;;;;;;;42.22;24.67;;;;;;;9.43;100.00;102322.72;5015287;28;20026;-74
2020/12/16 09:49:22;;;;;;;37.17;22.15;;;;;;;9.75;100.00;102327.50;5015560;28;20200;-73
2020/12/16 09:52:28;;;;;;;41.65;24.17;;;;;;;9.71;100.00;102325.72;5014989;28;20029;-73
2020/12/16 09:55:21;;;;;;;38.83;22.95;;;;;;;9.13;100.00;102322.34;5015562;28;20048;-73
2020/12/16 09:58:10;;;;;;;38.50;23.17;;;;;;;9.00;100.00;102321.25;5014363;28;20022;-74
2020/12/16 10:00:55;;;;;;;38.08;23.90;;;;;;;9.12;100.00;102324.06;5014856;28;20493;-74
2020/12/16 10:03:41;;;;;;;40.70;23.75;;;;;;;9.28;100.00;102320.78;5013899;28;20040;-73
2020/12/16 10:06:27;;;;;;;44.42;24.23;;;;;;;9.48;100.00;102316.69;5013227;28;20018;-72
2020/12/16 10:09:13;;;;;;;42.03;22.55;;;;;;;9.49;100.00;102304.50;5014854;28;20034;-74
2020/12/16 10:11:58;;;;;;;35.97;21.98;;;;;;;9.32;100.00;102308.63;5014922;28;20091;-74
2020/12/16 10:14:44;;;;;;;40.05;23.55;;;;;;;9.17;100.00;102301.44;5014707;28;20402;-75
2020/12/16 10:17:30;;;;;;;39.15;24.08;;;;;;;9.48;100.00;102294.88;5016727;28;20061;-74
2020/12/16 10:20:16;;;;;;;41.35;24.30;;;;;;;9.64;100.00;102291.56;5016073;28;20481;-78
2020/12/16 10:23:02;;;;;;;40.58;22.23;;;;;;;9.67;100.00;102292.50;5016359;28;20113;-75
2020/12/16 10:25:47;;;;;;;36.78;21.25;;;;;;;9.53;100.00;102286.22;5015158;28;20025;-73
2020/12/16 10:28:33;;;;;;;41.03;22.92;;;;;;;9.75;100.00;102285.63;5015362;28;20096;-73
2020/12/16 10:31:19;;;;;;;42.33;23.52;;;;;;;9.68;100.00;102289.03;5017827;28;20022;-73
2020/12/16 10:34:05;;;;;;;40.78;24.48;;;;;;;9.70;100.00;102287.28;5018154;28;20029;-71
2020/12/16 10:36:52;;;;;;;40.35;25.02;;;;;;;9.85;100.00;102281.38;5015252;28;20036;-73
2020/12/16 10:39:38;;;;;;;49.45;27.33;;;;;;;9.95;100.00;102284.09;5016046;28;20056;-73
2020/12/16 10:42:24;;;;;;;37.88;22.08;;;;;;;9.28;100.00;102278.06;5018012;28;20474;-72
2020/12/16 10:45:10;;;;;;;36.70;22.67;;;;;;;9.71;100.00;102275.97;5018280;28;20033;-71
2020/12/16 10:47:59;;;;;;;34.95;22.60;;;;;;;9.62;100.00;102270.63;5018049;28;20073;-72
2020/12/16 10:50:44;;;;;;;41.30;25.00;;;;;;;9.51;100.00;102263.53;5017234;28;20058;-73
2020/12/16 10:53:32;;;;;;;36.75;22.48;;;;;;;9.86;100.00;102270.88;5015980;28;20097;-73
2020/12/16 10:56:24;;;;;;;40.08;22.02;;;;;;;9.93;100.00;102266.59;5016939;28;20037;-73
2020/12/16 10:59:10;;;;;;;37.58;21.23;;;;;;;9.19;100.00;102267.47;5015877;28;20095;-71
2020/12/16 11:01:59;;;;;;;38.50;21.20;;;;;;;9.65;100.00;102260.19;5013971;28;20026;-72
2020/12/16 11:04:45;;;;;;;35.55;21.35;;;;;;;9.77;100.00;102265.56;5013530;28;20060;-73
2020/12/16 11:07:31;;;;;;;37.13;21.02;;;;;;;9.55;100.00;102265.31;5013021;28;20028;-72
2020/12/16 11:10:17;;;;;;;36.42;20.90;;;;;;;9.31;100.00;102254.56;5013888;28;20101;-72
2020/12/16 11:13:04;;;;;;;38.60;22.70;;;;;;;9.35;100.00;102259.84;5013017;28;20534;-73
2020/12/16 11:15:50;;;;;;;36.20;21.55;;;;;;;9.40;100.00;102257.28;5013780;28;20030;-73
2020/12/16 11:18:35;;;;;;;36.65;22.85;;;;;;;9.69;100.00;102248.91;5012749;28;20056;-72
2020/12/16 11:21:21;;;;;;;40.05;22.50;;;;;;;9.90;100.00;102253.47;5012320;28;20030;-73
2020/12/16 11:24:08;;;;;;;35.60;21.02;;;;;;;9.18;100.00;102247.44;5013325;28;20026;-72
2020/12/16 11:26:54;;;;;;;35.15;21.40;;;;;;;9.47;100.00;102253.88;5012542;28;20032;-72
2020/12/16 11:29:41;;;;;;;31.13;19.13;;;;;;;9.83;100.00;102243.81;5013657;28;20018;-73
2020/12/16 11:32:27;;;;;;;28.73;17.73;;;;;;;9.98;100.00;102244.81;5012643;28;20030;-72
2020/12/16 11:35:12;;;;;;;30.08;16.45;;;;;;;9.29;100.00;102240.59;5012603;28;20112;-73
2020/12/16 11:37:58;;;;;;;37.28;19.35;;;;;;;9.63;100.00;102229.63;5012528;28;20179;-73
2020/12/16 11:40:44;;;;;;;37.88;21.33;;;;;;;9.47;100.00;102232.94;5013653;28;20470;-73
2020/12/16 11:43:30;;;;;;;43.10;23.05;;;;;;;9.74;100.00;102217.53;5014048;28;20022;-72
2020/12/16 11:46:16;;;;;;;43.88;24.50;;;;;;;9.86;100.00;102225.53;5013179;28;20454;-72
2020/12/16 11:49:02;;;;;;;40.00;22.20;;;;;;;9.27;100.00;102221.38;5016463;28;20057;-72
2020/12/16 11:51:48;;;;;;;38.25;21.13;;;;;;;9.35;100.00;102218.00;5015485;28;20068;-72
2020/12/16 11:54:34;;;;;;;37.90;22.15;;;;;;;9.28;100.00;102224.03;5015861;28;20085;-72
2020/12/16 11:57:22;;;;;;;37.90;20.08;;;;;;;9.04;100.00;102228.94;5016783;28;20462;-72
2020/12/16 12:00:08;;;;;;;23.02;14.95;;;;;;;8.94;100.00;102226.19;5015620;28;20033;-73
2020/12/16 12:02:54;;;;;;;30.35;16.77;;;;;;;9.02;100.00;102221.94;5015550;28;20445;-72
2020/12/16 12:05:39;;;;;;;29.65;17.70;;;;;;;8.83;100.00;102230.41;5015685;28;20022;-73
2020/12/16 12:08:25;;;;;;;39.70;22.45;;;;;;;9.05;100.00;102227.22;5015465;28;20044;-72
2020/12/16 12:11:13;;;;;;;40.65;22.50;;;;;;;9.14;100.00;102223.00;5016014;28;20034;-71
2020/12/16 12:13:58;;;;;;;36.65;22.17;;;;;;;9.40;100.00;102223.28;5015326;28;20040;-72
2020/12/16 12:16:50;;;;;;;37.88;21.73;;;;;;;9.06;100.00;102222.03;5016102;28;20038;-71
2020/12/16 12:19:40;;;;;;;37.05;22.27;;;;;;;9.55;100.00;102220.81;5014457;28;20122;-72
2020/12/16 12:22:26;;;;;;;39.83;20.98;;;;;;;9.31;100.00;102215.31;5015192;28;20026;-72
2020/12/16 12:25:12;;;;;;;43.05;23.90;;;;;;;9.31;100.00;102224.06;5015220;28;20032;-71
2020/12/16 12:28:03;;;;;;;42.45;24.00;;;;;;;9.44;100.00;102225.06;5015577;28;20481;-72
2020/12/16 12:30:49;;;;;;;39.60;22.80;;;;;;;9.00;100.00;102219.31;5014987;28;20095;-73
2020/12/16 12:33:35;;;;;;;43.40;21.52;;;;;;;9.39;100.00;102218.91;5016009;28;20033;-72
2020/12/16 12:36:20;;;;;;;36.05;20.42;;;;;;;9.36;100.00;102213.63;5015507;28;20030;-72
2020/12/16 12:39:06;;;;;;;38.28;20.17;;;;;;;9.06;100.00;102215.91;5015195;28;20034;-71
2020/12/16 12:41:53;;;;;;;33.97;18.58;;;;;;;8.52;100.00;102228.22;5015326;28;20366;-75